Time;durP1;ratioP1;P1;durP2;ratioP2;P2;SDS_P1;SDS_P2;PMS_P1;PMS_P2;Temp;Humidity;BMP_temperature;BMP_pressure;BME280_temperature;BME280_humidity;BME280_pressure;Samples;Min_cycle;Max_cycle;Signal;HPM_P1;HPM_P2
2022/10/22 00:00:13;;;;;;;21.83;12.00;;;14.90;1.00;;;;;;4970297;28;20209;-67
2022/10/22 00:02:38;;;;;;;11.80;10.00;;;14.90;1.00;;;;;;4970423;28;20231;-66
2022/10/22 00:05:04;;;;;;;13.07;9.83;;;14.90;1.00;;;;;;4970754;28;20436;-66
2022/10/22 00:07:30;;;;;;;14.40;11.57;;;14.90;1.00;;;;;;4971399;28;20516;-66
2022/10/22 00:09:56;;;;;;;12.20;9.63;;;14.90;1.00;;;;;;4974938;28;20524;-67
2022/10/22 00:12:22;;;;;;;20.67;10.70;;;14.90;1.00;;;;;;4974345;28;20697;-66
2022/10/22 00:14:48;;;;;;;12.30;8.50;;;14.90;1.00;;;;;;4974765;28;20197;-67
2022/10/22 00:17:14;;;;;;;10.40;8.03;;;14.90;1.00;;;;;;4974632;28;20732;-66
2022/10/22 00:19:40;;;;;;;8.97;7.60;;;14.90;1.00;;;;;;4974664;28;20452;-66
2022/10/22 00:22:07;;;;;;;21.83;7.73;;;14.90;1.00;;;;;;4973870;28;20745;-66
2022/10/22 00:24:34;;;;;;;9.13;5.10;;;14.90;1.00;;;;;;4974526;28;20432;-67
2022/10/22 00:27:00;;;;;;;6.97;3.30;;;14.90;1.00;;;;;;4974579;28;20864;-66
2022/10/22 00:29:25;;;;;;;12.00;3.47;;;14.80;1.00;;;;;;4974628;28;20484;-66
2022/10/22 00:31:51;;;;;;;6.73;1.90;;;14.80;1.00;;;;;;4973146;28;20268;-67
2022/10/22 00:34:18;;;;;;;5.57;2.67;;;14.70;1.00;;;;;;4974354;28;20205;-66
2022/10/22 00:36:44;;;;;;;9.13;2.03;;;14.80;1.00;;;;;;4973497;28;20637;-66
2022/10/22 00:39:11;;;;;;;4.37;1.97;;;14.70;1.00;;;;;;4974349;28;20964;-66
2022/10/22 00:41:38;;;;;;;6.90;2.07;;;14.70;1.00;;;;;;4973306;28;20457;-65
2022/10/22 00:44:05;;;;;;;7.70;2.60;;;14.70;1.00;;;;;;4974749;28;20441;-65
2022/10/22 00:46:31;;;;;;;6.60;2.10;;;14.70;1.00;;;;;;4973982;28;20409;-64
2022/10/22 00:49:00;;;;;;;4.17;1.70;;;14.70;1.00;;;;;;4974585;28;20462;-64
2022/10/22 00:51:31;;;;;;;5.43;1.70;;;14.70;1.00;;;;;;4973522;28;20275;-65
2022/10/22 00:54:03;;;;;;;5.10;1.97;;;14.70;1.00;;;;;;4974143;28;20840;-65
2022/10/22 00:56:29;;;;;;;3.60;1.57;;;14.60;1.00;;;;;;4973558;28;21284;-65
2022/10/22 00:58:59;;;;;;;4.63;1.60;;;14.60;1.00;;;;;;4973702;28;20424;-65
2022/10/22 01:01:28;;;;;;;2.60;1.30;;;14.60;1.00;;;;;;4972289;28;20479;-66
2022/10/22 01:03:54;;;;;;;2.53;1.30;;;14.60;1.00;;;;;;4973672;28;20934;-65
2022/10/22 01:06:25;;;;;;;8.60;1.60;;;14.50;1.00;;;;;;4973561;28;20412;-65
2022/10/22 01:09:08;;;;;;;5.73;1.63;;;14.60;1.00;;;;;;4973773;28;20174;-67
2022/10/22 01:11:42;;;;;;;6.20;2.17;;;14.50;1.00;;;;;;4972803;28;20413;-65
2022/10/22 01:14:43;;;;;;;4.17;1.27;;;14.50;1.00;;;;;;4973949;28;20433;-66
2022/10/22 01:17:13;;;;;;;4.00;1.50;;;14.50;1.00;;;;;;4962850;28;20515;-64
2022/10/22 01:19:53;;;;;;;3.67;1.73;;;14.60;1.00;;;;;;4972590;28;20935;-65
2022/10/22 01:22:49;;;;;;;3.80;2.53;;;14.60;1.00;;;;;;4972793;28;20448;-67
2022/10/22 01:26:13;;;;;;;1.60;1.40;;;14.50;1.00;;;;;;4973298;28;20421;-65
2022/10/22 01:29:06;;;;;;;2.63;1.30;;;14.40;1.00;;;;;;4950144;28;20409;-66
2022/10/22 01:31:38;;;;;;;4.60;1.30;;;14.40;1.00;;;;;;4972458;28;20492;-65
2022/10/22 01:34:07;;;;;;;1.87;1.27;;;14.40;1.00;;;;;;4974067;28;20444;-66
2022/10/22 01:36:34;;;;;;;13.10;2.27;;;14.30;1.00;;;;;;4972412;28;20436;-65
2022/10/22 01:39:01;;;;;;;8.40;2.10;;;14.30;1.00;;;;;;4973221;28;20424;-66
2022/10/22 01:41:30;;;;;;;9.63;2.00;;;14.30;1.00;;;;;;4972468;28;20547;-65
2022/10/22 01:43:56;;;;;;;5.43;1.60;;;14.20;1.00;;;;;;4973480;28;20579;-66
2022/10/22 01:46:23;;;;;;;10.37;1.97;;;14.20;1.00;;;;;;4972929;28;20496;-66
2022/10/22 01:49:26;;;;;;;6.07;1.60;;;14.20;1.00;;;;;;4973811;28;20514;-65
2022/10/22 01:52:01;;;;;;;4.80;1.77;;;14.20;1.00;;;;;;4971658;28;20424;-65
2022/10/22 01:54:34;;;;;;;8.10;1.53;;;14.20;1.00;;;;;;4972723;28;20432;-66
2022/10/22 01:57:41;;;;;;;2.13;1.80;;;14.20;1.00;;;;;;4972822;28;21220;-66
2022/10/22 02:00:10;;;;;;;8.07;1.83;;;14.30;1.00;;;;;;4969365;28;20464;-65
2022/10/22 02:03:00;;;;;;;11.83;1.73;;;14.30;1.00;;;;;;4972143;28;20515;-66
2022/10/22 02:05:32;;;;;;;2.07;1.27;;;14.30;1.00;;;;;;4972764;28;20484;-66
2022/10/22 02:08:04;;;;;;;3.83;1.30;;;14.30;1.00;;;;;;4972670;28;20767;-66
2022/10/22 02:10:31;;;;;;;2.83;1.10;;;14.20;1.00;;;;;;4971565;28;20421;-66
2022/10/22 02:12:58;;;;;;;3.20;1.20;;;14.20;1.00;;;;;;4972477;28;20417;-66
2022/10/22 02:15:28;;;;;;;5.00;1.40;;;14.20;1.00;;;;;;4986682;28;20810;-65
2022/10/22 02:17:57;;;;;;;4.33;1.50;;;14.20;1.00;;;;;;4972484;28;20447;-65
2022/10/22 02:20:28;;;;;;;2.33;1.30;;;14.10;1.00;;;;;;4972137;28;20539;-65
2022/10/22 02:22:55;;;;;;;4.13;1.60;;;14.10;1.00;;;;;;4972584;28;20413;-65
2022/10/22 02:25:26;;;;;;;17.80;3.33;;;14.10;1.00;;;;;;4972208;28;20514;-66
2022/10/22 02:28:07;;;;;;;5.73;1.97;;;14.00;1.00;;;;;;4972483;28;20409;-66
2022/10/22 02:30:37;;;;;;;2.50;1.50;;;14.00;1.00;;;;;;4971053;28;20421;-67
2022/10/22 02:33:16;;;;;;;4.00;1.30;;;14.10;1.00;;;;;;4972135;28;20767;-66
2022/10/22 02:35:44;;;;;;;5.63;1.90;;;14.10;1.00;;;;;;4971012;28;20845;-66
2022/10/22 02:38:11;;;;;;;8.07;2.03;;;14.10;1.00;;;;;;4972175;28;20878;-66
2022/10/22 02:40:37;;;;;;;2.60;1.30;;;14.00;1.00;;;;;;4971131;28;20448;-66
2022/10/22 02:43:04;;;;;;;7.00;1.60;;;14.00;1.00;;;;;;4972015;28;20746;-66
2022/10/22 02:45:30;;;;;;;4.30;1.90;;;14.00;1.00;;;;;;4970854;28;20291;-66
2022/10/22 02:47:56;;;;;;;3.30;1.53;;;14.00;1.00;;;;;;4971781;28;20893;-66
2022/10/22 02:50:21;;;;;;;4.53;1.67;;;13.90;1.00;;;;;;4971497;28;20265;-66
2022/10/22 02:52:47;;;;;;;3.33;1.40;;;13.90;1.00;;;;;;4971304;28;20184;-66
2022/10/22 02:55:13;;;;;;;3.10;1.50;;;13.90;1.00;;;;;;4971338;28;20200;-66
2022/10/22 02:57:39;;;;;;;1.93;1.30;;;13.90;1.00;;;;;;4971750;28;20178;-65
2022/10/22 03:00:06;;;;;;;2.20;1.53;;;14.00;1.00;;;;;;4971026;28;20578;-66
2022/10/22 03:02:32;;;;;;;4.23;1.10;;;13.90;1.00;;;;;;4970986;28;20174;-66
2022/10/22 03:04:58;;;;;;;2.40;1.23;;;13.90;1.00;;;;;;4971428;28;20443;-66
2022/10/22 03:07:24;;;;;;;3.03;1.03;;;13.90;1.00;;;;;;4971774;28;20169;-66
2022/10/22 03:09:49;;;;;;;4.77;1.20;;;13.80;1.00;;;;;;4971286;28;20169;-65
2022/10/22 03:12:15;;;;;;;10.13;2.20;;;13.80;1.00;;;;;;4970320;28;20586;-66
2022/10/22 03:14:41;;;;;;;7.60;1.47;;;13.80;1.00;;;;;;4971395;28;20197;-66
2022/10/22 03:17:06;;;;;;;1.67;1.07;;;13.80;1.00;;;;;;4970626;28;20178;-66
2022/10/22 03:19:32;;;;;;;6.47;1.90;;;13.80;1.00;;;;;;4971114;28;20469;-66
2022/10/22 03:22:03;;;;;;;5.83;1.73;;;13.70;1.00;;;;;;4970447;28;20232;-66
2022/10/22 03:24:41;;;;;;;5.40;1.70;;;13.80;1.00;;;;;;4971180;28;20646;-66
2022/10/22 03:27:07;;;;;;;7.40;1.60;;;13.80;1.00;;;;;;4971556;28;20405;-66
2022/10/22 03:29:36;;;;;;;3.23;1.33;;;13.80;1.00;;;;;;4971513;28;20412;-66
2022/10/22 03:32:02;;;;;;;2.27;1.40;;;13.80;1.00;;;;;;4969914;28;20397;-66
2022/10/22 03:34:28;;;;;;;2.40;1.43;;;13.90;1.00;;;;;;4970790;28;20451;-66
2022/10/22 03:36:56;;;;;;;2.93;1.20;;;13.80;1.00;;;;;;4969761;28;20504;-66
2022/10/22 03:39:22;;;;;;;5.13;1.40;;;13.80;1.00;;;;;;4971232;28;20180;-66
2022/10/22 03:41:51;;;;;;;3.77;1.73;;;13.80;1.00;;;;;;4970012;28;21040;-65
2022/10/22 03:44:17;;;;;;;3.03;1.60;;;13.70;1.00;;;;;;4970593;28;20441;-65
2022/10/22 03:46:43;;;;;;;3.40;1.30;;;13.70;1.00;;;;;;4970707;28;20428;-66
2022/10/22 03:49:09;;;;;;;3.80;1.30;;;13.70;1.00;;;;;;4971316;28;20720;-65
2022/10/22 03:51:35;;;;;;;2.17;1.77;;;13.60;1.00;;;;;;4970056;28;20431;-66
2022/10/22 03:54:01;;;;;;;2.10;1.13;;;13.70;1.00;;;;;;4970677;28;20204;-66
2022/10/22 03:56:27;;;;;;;4.50;1.27;;;13.70;1.00;;;;;;4970319;28;20177;-66
2022/10/22 03:58:56;;;;;;;1.90;1.03;;;13.70;1.00;;;;;;4970722;28;20401;-66
2022/10/22 04:01:22;;;;;;;2.63;1.60;;;13.70;1.00;;;;;;4969557;28;20213;-66
2022/10/22 04:03:48;;;;;;;8.07;1.43;;;13.70;1.00;;;;;;4971090;28;20826;-66
2022/10/22 04:06:14;;;;;;;7.10;2.20;;;13.70;1.00;;;;;;4970391;28;20400;-66
2022/10/22 04:08:42;;;;;;;8.23;2.37;;;13.70;1.00;;;;;;4970823;28;20177;-65
2022/10/22 04:11:08;;;;;;;5.57;1.40;;;13.70;1.00;;;;;;4969389;28;20455;-65
2022/10/22 04:13:34;;;;;;;4.73;1.80;;;13.70;1.00;;;;;;4971010;28;20855;-65
2022/10/22 04:16:08;;;;;;;8.63;1.97;;;13.70;1.00;;;;;;4970263;28;20420;-65
2022/10/22 04:18:34;;;;;;;3.53;1.30;;;13.70;1.00;;;;;;4970990;28;20750;-67
2022/10/22 04:21:00;;;;;;;5.53;1.60;;;13.80;1.00;;;;;;4969743;28;20811;-65
2022/10/22 04:23:26;;;;;;;10.83;1.60;;;13.70;1.00;;;;;;4970150;28;20424;-65
2022/10/22 04:26:00;;;;;;;4.80;1.37;;;13.70;1.00;;;;;;4970231;28;20265;-65
2022/10/22 04:28:26;;;;;;;2.40;1.30;;;13.70;1.00;;;;;;4970648;28;20176;-65
2022/10/22 04:30:52;;;;;;;2.53;1.07;;;13.70;1.00;;;;;;4969211;28;20488;-65
2022/10/22 04:33:17;;;;;;;1.60;0.90;;;13.70;1.00;;;;;;4970566;28;20669;-65
2022/10/22 04:35:43;;;;;;;3.73;2.07;;;13.60;1.00;;;;;;4968546;28;20205;-66
2022/10/22 04:38:09;;;;;;;5.60;1.43;;;13.60;1.00;;;;;;4970925;28;20173;-66
2022/10/22 04:40:34;;;;;;;5.63;1.80;;;13.60;1.00;;;;;;4969389;28;20201;-66
2022/10/22 04:43:00;;;;;;;6.20;1.67;;;13.50;1.00;;;;;;4970112;28;20174;-66
2022/10/22 04:45:26;;;;;;;5.23;1.20;;;13.60;1.00;;;;;;4972345;28;20672;-66
2022/10/22 04:47:51;;;;;;;3.80;1.70;;;13.60;1.00;;;;;;4989780;28;20181;-66
2022/10/22 04:50:17;;;;;;;3.13;1.20;;;13.60;1.00;;;;;;4989740;28;20176;-66
2022/10/22 04:52:43;;;;;;;5.70;2.20;;;13.60;1.00;;;;;;4989681;28;20227;-66
2022/10/22 04:55:09;;;;;;;1.90;1.20;;;13.50;1.00;;;;;;4992291;28;20308;-66
2022/10/22 04:57:35;;;;;;;3.60;1.33;;;13.50;1.00;;;;;;4993687;28;20169;-66
2022/10/22 05:00:00;;;;;;;5.83;1.40;;;13.60;1.00;;;;;;4993034;28;20642;-66
2022/10/22 05:02:26;;;;;;;7.67;1.73;;;13.60;1.00;;;;;;4992659;28;20625;-66
2022/10/22 05:04:52;;;;;;;2.60;1.47;;;13.70;1.00;;;;;;4993941;28;20197;-66
2022/10/22 05:07:17;;;;;;;4.67;2.10;;;13.70;1.00;;;;;;4993851;28;20638;-66
2022/10/22 05:09:43;;;;;;;3.67;1.53;;;13.60;1.00;;;;;;4993636;28;20559;-66
2022/10/22 05:12:09;;;;;;;17.07;2.43;;;13.60;1.00;;;;;;4992578;28;20595;-66
2022/10/22 05:14:34;;;;;;;11.17;2.30;;;13.60;1.00;;;;;;4993496;28;20276;-66
2022/10/22 05:17:00;;;;;;;7.30;1.83;;;13.60;1.00;;;;;;4992878;28;20199;-66
2022/10/22 05:19:28;;;;;;;6.03;2.60;;;13.60;1.00;;;;;;4992972;28;20260;-66
2022/10/22 05:21:56;;;;;;;2.67;1.67;;;13.50;1.00;;;;;;4988284;28;20177;-67
2022/10/22 05:24:23;;;;;;;15.87;2.80;;;13.60;1.00;;;;;;4973375;28;20983;-67
2022/10/22 05:26:50;;;;;;;11.50;2.97;;;13.60;1.00;;;;;;4973747;28;20898;-66
2022/10/22 05:29:16;;;;;;;5.53;2.17;;;13.50;1.00;;;;;;4973720;28;20422;-66
2022/10/22 05:31:42;;;;;;;8.27;2.50;;;13.50;1.00;;;;;;4972147;28;20570;-67
2022/10/22 05:34:08;;;;;;;6.30;2.10;;;13.50;1.00;;;;;;4973070;28;20216;-67
2022/10/22 05:36:33;;;;;;;14.77;4.43;;;13.60;1.00;;;;;;4971633;28;20638;-66
2022/10/22 05:38:59;;;;;;;4.27;2.50;;;13.60;1.00;;;;;;4973727;28;20614;-67
2022/10/22 05:41:27;;;;;;;8.73;2.50;;;13.60;1.00;;;;;;4972361;28;20292;-66
2022/10/22 05:43:57;;;;;;;7.20;3.10;;;13.60;1.00;;;;;;4973289;28;20320;-67
2022/10/22 05:46:25;;;;;;;9.10;2.70;;;13.60;1.00;;;;;;4972569;28;21046;-67
2022/10/22 05:48:59;;;;;;;13.20;3.40;;;13.60;1.00;;;;;;4973468;28;21235;-67
2022/10/22 05:51:30;;;;;;;5.20;3.23;;;13.60;1.00;;;;;;4972304;28;20413;-66
2022/10/22 05:54:01;;;;;;;2.93;2.57;;;13.60;1.00;;;;;;4972988;28;20491;-66
2022/10/22 05:56:29;;;;;;;4.00;2.30;;;13.60;1.00;;;;;;4973665;28;20405;-66
2022/10/22 05:58:55;;;;;;;3.63;2.60;;;13.60;1.00;;;;;;4973526;28;20417;-66
2022/10/22 06:01:30;;;;;;;34.73;5.87;;;13.60;1.00;;;;;;4971669;28;20574;-67
2022/10/22 06:03:58;;;;;;;13.57;3.60;;;13.60;1.00;;;;;;4973249;28;20906;-66
2022/10/22 06:06:29;;;;;;;12.77;3.17;;;13.70;1.00;;;;;;4972290;28;20412;-65
2022/10/22 06:08:58;;;;;;;4.03;1.60;;;13.70;1.00;;;;;;4983652;28;20528;-67
2022/10/22 06:11:24;;;;;;;3.77;1.50;;;13.60;1.00;;;;;;4983616;28;20424;-67
2022/10/22 06:13:50;;;;;;;2.93;1.67;;;13.70;1.00;;;;;;4992442;28;20428;-68
2022/10/22 06:16:16;;;;;;;5.77;1.90;;;13.60;1.00;;;;;;4991999;28;20273;-68
2022/10/22 06:18:42;;;;;;;8.40;2.57;;;13.70;1.00;;;;;;4992545;28;20428;-68
2022/10/22 06:21:11;;;;;;;5.50;2.57;;;13.70;1.00;;;;;;4991410;28;20231;-67
2022/10/22 06:23:38;;;;;;;7.40;2.40;;;13.70;1.00;;;;;;4991912;28;20173;-67
2022/10/22 06:26:04;;;;;;;5.70;1.87;;;13.70;1.00;;;;;;4982639;28;20466;-67
2022/10/22 06:28:30;;;;;;;12.80;2.07;;;13.70;1.00;;;;;;4980175;28;20498;-68
2022/10/22 06:31:01;;;;;;;2.47;1.80;;;13.70;1.00;;;;;;4991316;28;20420;-68
2022/10/22 06:33:27;;;;;;;47.53;4.70;;;13.70;1.00;;;;;;4974223;28;20412;-68
2022/10/22 06:35:53;;;;;;;10.47;2.70;;;13.80;1.00;;;;;;4980735;28;20995;-68
2022/10/22 06:38:20;;;;;;;4.27;2.63;;;13.70;1.00;;;;;;4983665;28;20416;-68
2022/10/22 06:40:45;;;;;;;7.33;2.40;;;13.70;1.00;;;;;;4990879;28;20208;-68
2022/10/22 06:43:12;;;;;;;38.97;7.37;;;13.70;1.00;;;;;;4991969;28;20944;-68
2022/10/22 06:45:38;;;;;;;9.47;4.27;;;13.70;1.00;;;;;;4991377;28;20185;-69
2022/10/22 06:48:03;;;;;;;10.17;3.00;;;13.60;1.00;;;;;;4991558;28;20416;-69
2022/10/22 06:50:29;;;;;;;6.73;2.23;;;13.70;1.00;;;;;;4989383;28;20427;-67
2022/10/22 06:52:56;;;;;;;5.20;1.43;;;13.70;1.00;;;;;;4991852;28;20188;-68
2022/10/22 06:55:22;;;;;;;5.63;2.20;;;13.70;1.00;;;;;;4991089;28;20287;-68
2022/10/22 06:57:47;;;;;;;1.83;1.60;;;13.80;1.00;;;;;;4991682;28;20578;-68
2022/10/22 07:00:13;;;;;;;8.30;3.80;;;13.70;1.00;;;;;;4990583;28;20221;-68
2022/10/22 07:02:39;;;;;;;10.00;3.17;;;13.80;1.00;;;;;;4990892;28;20268;-69
2022/10/22 07:05:05;;;;;;;5.83;2.30;;;13.80;1.00;;;;;;4991167;28;20201;-68
2022/10/22 07:07:31;;;;;;;7.97;2.23;;;13.80;1.00;;;;;;4991355;28;20181;-68
2022/10/22 07:09:56;;;;;;;3.93;2.20;;;13.80;1.00;;;;;;4991192;28;20423;-68
2022/10/22 07:12:22;;;;;;;8.00;2.00;;;13.80;1.00;;;;;;4989110;28;20259;-68
2022/10/22 07:14:48;;;;;;;3.43;1.97;;;13.80;1.00;;;;;;4991217;28;20239;-68
2022/10/22 07:17:14;;;;;;;9.87;2.83;;;13.80;1.00;;;;;;4989521;28;20173;-68
2022/10/22 07:19:40;;;;;;;7.77;2.10;;;13.80;1.00;;;;;;4991102;28;20951;-68
2022/10/22 07:22:05;;;;;;;6.63;2.80;;;13.80;1.00;;;;;;4990169;28;20184;-68
2022/10/22 07:24:31;;;;;;;4.40;2.47;;;13.90;1.00;;;;;;4991219;28;20211;-69
2022/10/22 07:26:57;;;;;;;2.50;2.17;;;13.90;1.00;;;;;;4991009;28;20169;-68
2022/10/22 07:29:22;;;;;;;6.23;3.00;;;13.90;1.00;;;;;;4991479;28;20197;-68
2022/10/22 07:31:48;;;;;;;6.73;2.13;;;13.90;1.00;;;;;;4989530;28;20770;-68
2022/10/22 07:34:14;;;;;;;8.93;2.80;;;13.90;1.00;;;;;;4991445;28;20213;-68
2022/10/22 07:36:40;;;;;;;3.07;2.10;;;14.00;1.00;;;;;;4990586;28;20689;-68
2022/10/22 07:39:05;;;;;;;32.67;4.67;;;14.00;1.00;;;;;;4990740;28;20271;-68
2022/10/22 07:41:31;;;;;;;9.43;2.63;;;14.10;1.00;;;;;;4989061;28;20203;-69
2022/10/22 07:43:57;;;;;;;4.27;2.10;;;14.10;1.00;;;;;;4990484;28;20548;-69
2022/10/22 07:46:24;;;;;;;5.43;2.10;;;14.10;1.00;;;;;;4990159;28;20235;-69
2022/10/22 07:48:50;;;;;;;6.93;1.80;;;14.10;1.00;;;;;;4989445;28;20456;-67
2022/10/22 07:51:15;;;;;;;12.23;2.80;;;14.10;1.00;;;;;;4989507;28;20427;-67
2022/10/22 07:53:41;;;;;;;10.10;2.40;;;14.10;1.00;;;;;;4990596;28;20184;-67
2022/10/22 07:56:07;;;;;;;8.13;2.20;;;14.10;1.00;;;;;;4990532;28;20176;-68
2022/10/22 07:58:33;;;;;;;5.60;3.60;;;14.10;1.00;;;;;;4990305;28;20672;-68
2022/10/22 08:01:00;;;;;;;3.20;2.23;;;14.20;1.00;;;;;;4989272;28;20470;-67
2022/10/22 08:03:27;;;;;;;5.63;2.80;;;14.30;1.00;;;;;;4990635;28;20408;-67
2022/10/22 08:05:53;;;;;;;15.13;3.43;;;14.30;1.00;;;;;;4990981;28;20864;-67
2022/10/22 08:08:20;;;;;;;2.97;2.00;;;14.50;1.00;;;;;;4991034;28;20419;-67
2022/10/22 08:10:47;;;;;;;4.63;2.10;;;14.50;1.00;;;;;;4989770;28;20543;-68
2022/10/22 08:13:13;;;;;;;5.97;3.07;;;14.50;1.00;;;;;;4990673;28;20412;-68
2022/10/22 08:15:41;;;;;;;3.33;2.20;;;14.60;1.00;;;;;;4991076;28;20519;-68
2022/10/22 08:18:07;;;;;;;2.47;2.27;;;14.50;1.00;;;;;;4990893;28;20408;-68
2022/10/22 08:20:33;;;;;;;3.70;3.17;;;14.40;1.00;;;;;;4989489;28;20475;-68
2022/10/22 08:22:59;;;;;;;6.57;2.60;;;14.50;1.00;;;;;;4990423;28;20626;-69
2022/10/22 08:25:25;;;;;;;5.03;2.10;;;14.50;1.00;;;;;;4990382;28;20240;-68
2022/10/22 08:27:50;;;;;;;4.23;3.70;;;14.50;1.00;;;;;;4990497;28;20412;-68
2022/10/22 08:30:16;;;;;;;3.30;2.53;;;14.80;1.00;;;;;;4993042;28;20184;-69
2022/10/22 08:32:42;;;;;;;6.40;2.80;;;15.00;1.00;;;;;;4993956;28;20181;-68
2022/10/22 08:35:08;;;;;;;3.67;2.50;;;15.40;1.00;;;;;;4994480;28;20452;-68
2022/10/22 08:37:34;;;;;;;4.73;2.30;;;15.80;1.00;;;;;;4993965;28;20473;-68
2022/10/22 08:40:00;;;;;;;6.33;2.60;;;16.30;1.00;;;;;;4993694;28;20285;-68
2022/10/22 08:42:56;;;;;;;35.00;3.60;;;16.40;1.00;;;;;;4993423;28;21078;-69
2022/10/22 08:45:27;;;;;;;18.70;3.47;;;16.50;1.00;;;;;;4994023;28;20355;-69
2022/10/22 08:48:31;;;;;;;7.53;2.37;;;16.60;1.00;;;;;;4994077;28;20404;-69
2022/10/22 08:50:57;;;;;;;6.70;2.10;;;16.60;1.00;;;;;;4992795;28;20418;-69
2022/10/22 08:53:48;;;;;;;17.27;4.83;;;16.50;1.00;;;;;;4993737;28;20416;-69
2022/10/22 08:56:14;;;;;;;26.13;4.50;;;16.60;1.00;;;;;;4965558;28;20420;-68
2022/10/22 08:58:58;;;;;;;11.53;3.03;;;16.50;1.00;;;;;;4993721;28;20412;-69
2022/10/22 09:01:38;;;;;;;12.77;3.37;;;16.60;1.00;;;;;;4992366;28;20235;-69
2022/10/22 09:04:25;;;;;;;24.20;4.43;;;17.10;99.90;;;;;;4993347;28;20856;-69
2022/10/22 09:06:56;;;;;;;32.87;5.67;;;17.70;99.90;;;;;;4993254;28;20554;-68
2022/10/22 09:09:28;;;;;;;28.83;3.93;;;18.10;99.90;;;;;;4993409;28;20486;-68
2022/10/22 09:11:56;;;;;;;22.53;3.57;;;18.50;99.90;;;;;;4992699;28;20474;-69
2022/10/22 09:14:24;;;;;;;7.63;3.20;;;18.80;1.00;;;;;;4993262;28;20767;-69
2022/10/22 09:17:08;;;;;;;9.47;2.20;;;18.90;99.90;;;;;;4991340;28;20485;-68
2022/10/22 09:19:57;;;;;;;6.20;2.27;;;19.10;1.00;;;;;;4993014;28;20476;-67
2022/10/22 09:22:22;;;;;;;5.43;2.43;;;19.20;99.90;;;;;;4992135;28;20420;-67
2022/10/22 09:24:57;;;;;;;6.50;2.30;;;19.30;99.90;;;;;;4993118;28;20428;-67
2022/10/22 09:27:28;;;;;;;2.50;1.80;;;19.70;1.00;;;;;;4992971;28;20549;-68
2022/10/22 09:29:55;;;;;;;6.20;2.10;;;19.80;1.00;;;;;;4992779;28;20405;-70
2022/10/22 09:32:21;;;;;;;3.97;1.77;;;19.60;1.00;;;;;;4991904;28;20445;-68
2022/10/22 09:34:48;;;;;;;3.40;2.47;;;19.80;1.00;;;;;;4992314;28;20517;-69
2022/10/22 09:37:18;;;;;;;5.57;2.23;;;20.10;99.90;;;;;;4992472;28;20181;-68
2022/10/22 09:39:46;;;;;;;8.00;2.00;;;20.40;99.90;;;;;;4991878;28;20543;-68
2022/10/22 09:42:17;;;;;;;13.50;2.90;;;20.60;99.90;;;;;;4990572;28;20409;-69
2022/10/22 09:44:42;;;;;;;13.00;2.20;;;20.30;70.40;;;;;;4992746;28;20428;-67
2022/10/22 09:47:41;;;;;;;7.17;2.77;;;20.20;64.00;;;;;;4991464;28;20419;-66
2022/10/22 09:50:27;;;;;;;2.90;2.27;;;20.50;1.00;;;;;;4990044;28;20180;-69
2022/10/22 09:53:20;;;;;;;25.40;3.73;;;20.70;1.00;;;;;;4992210;28;20408;-68
2022/10/22 09:56:26;;;;;;;105.40;11.20;;;20.60;1.00;;;;;;4991516;28;20431;-68
2022/10/22 09:58:51;;;;;;;13.50;3.10;;;20.60;1.00;;;;;;4969266;28;20519;-68
2022/10/22 10:01:31;;;;;;;9.13;3.70;;;20.50;1.00;;;;;;4989931;28;20913;-68
2022/10/22 10:04:04;;;;;;;11.30;3.63;;;20.40;1.00;;;;;;4991856;28;20199;-68
2022/10/22 10:06:33;;;;;;;14.77;3.10;;;20.10;1.00;;;;;;4991660;28;20838;-67
2022/10/22 10:09:04;;;;;;;12.17;3.03;;;20.10;1.00;;;;;;4992376;28;20407;-69
2022/10/22 10:12:02;;;;;;;13.27;3.73;;;20.20;1.00;;;;;;4991357;28;20452;-68
2022/10/22 10:14:37;;;;;;;36.03;5.63;;;19.40;8.00;;;;;;4980535;28;20877;-68
2022/10/22 10:17:27;;;;;;;25.77;4.80;;;19.30;99.90;;;;;;4992184;28;20414;-68
2022/10/22 10:20:31;;;;;;;25.37;5.20;;;19.30;99.90;;;;;;4992243;28;20419;-68
2022/10/22 10:23:11;;;;;;;10.27;3.27;;;19.30;99.90;;;;;;4989518;28;20420;-68
2022/10/22 10:25:57;;;;;;;5.47;2.60;;;19.20;99.90;;;;;;4991546;28;20457;-68
2022/10/22 10:28:35;;;;;;;9.80;3.30;;;19.20;99.90;;;;;;4991674;28;20412;-67
2022/10/22 10:31:19;;;;;;;6.10;3.00;;;19.30;99.90;;;;;;4990269;28;20486;-68
2022/10/22 10:34:09;;;;;;;9.17;3.60;;;19.50;99.90;;;;;;4991115;28;20473;-69
2022/10/22 10:36:44;;;;;;;3.63;3.33;;;19.40;99.90;;;;;;4991381;28;20447;-67
2022/10/22 10:39:31;;;;;;;4.50;3.63;;;19.30;99.90;;;;;;4991425;28;20407;-68
2022/10/22 10:42:01;;;;;;;8.87;4.03;;;19.40;99.90;;;;;;4990512;28;20467;-67
2022/10/22 10:44:33;;;;;;;9.50;4.37;;;19.50;99.90;;;;;;4991155;28;20424;-66
2022/10/22 10:47:02;;;;;;;20.93;6.10;;;19.50;99.90;;;;;;4990724;28;20470;-68
2022/10/22 10:49:33;;;;;;;25.57;6.00;;;19.50;99.90;;;;;;4989606;28;20420;-66
2022/10/22 10:52:19;;;;;;;71.73;8.87;;;19.40;99.90;;;;;;4990070;28;20850;-67
2022/10/22 10:55:06;;;;;;;56.97;8.83;;;19.20;99.90;;;;;;4991399;28;20571;-67
2022/10/22 10:57:59;;;;;;;24.07;7.13;;;19.30;99.90;;;;;;4991310;28;20408;-67
2022/10/22 11:00:27;;;;;;;33.63;5.70;;;19.60;99.90;;;;;;4989772;28;20459;-68
2022/10/22 11:03:14;;;;;;;31.57;6.10;;;19.90;99.90;;;;;;4991374;28;20763;-68
2022/10/22 11:05:59;;;;;;;34.73;5.73;;;20.10;99.90;;;;;;4990781;28;20432;-67
2022/10/22 11:08:40;;;;;;;11.37;4.50;;;20.00;26.20;;;;;;4991210;28;20426;-70
2022/10/22 11:11:25;;;;;;;12.83;4.30;;;19.90;1.00;;;;;;4990303;28;20943;-68
2022/10/22 11:14:10;;;;;;;23.97;4.37;;;20.00;1.00;;;;;;4991245;28;20490;-68
2022/10/22 11:16:52;;;;;;;15.77;3.97;;;19.80;1.00;;;;;;4990348;28;20884;-68
2022/10/22 11:19:18;;;;;;;32.10;5.37;;;19.80;1.00;;;;;;4990883;28;20416;-68
2022/10/22 11:22:04;;;;;;;28.30;6.03;;;19.70;1.00;;;;;;4989870;28;20819;-66
2022/10/22 11:24:43;;;;;;;5.30;3.03;;;19.60;1.00;;;;;;4990523;28;20268;-67
2022/10/22 11:27:21;;;;;;;13.03;3.80;;;19.50;1.00;;;;;;4990868;28;20408;-68
2022/10/22 11:29:52;;;;;;;27.13;4.83;;;19.60;1.00;;;;;;4991239;28;20471;-67
2022/10/22 11:32:21;;;;;;;12.23;2.80;;;19.90;1.00;;;;;;4989518;28;20468;-68
2022/10/22 11:34:56;;;;;;;19.67;4.10;;;20.10;1.00;;;;;;4988712;28;20540;-68
2022/10/22 11:37:26;;;;;;;30.40;5.50;;;20.10;1.00;;;;;;4990434;28;20419;-68
2022/10/22 11:39:55;;;;;;;38.57;5.87;;;20.20;1.00;;;;;;4990826;28;20419;-67
2022/10/22 11:42:43;;;;;;;20.70;5.87;;;19.90;1.00;;;;;;4990433;28;20418;-68
2022/10/22 11:45:15;;;;;;;33.10;5.10;;;20.00;1.00;;;;;;4990414;28;20440;-67
2022/10/22 11:47:51;;;;;;;33.70;5.97;;;20.30;1.00;;;;;;4991100;28;20422;-68
2022/10/22 11:50:23;;;;;;;20.60;4.00;;;20.30;1.00;;;;;;4988453;28;20515;-68
2022/10/22 11:53:01;;;;;;;14.73;3.90;;;20.20;1.00;;;;;;4990035;28;20415;-68
2022/10/22 11:55:46;;;;;;;25.73;4.20;;;20.10;1.00;;;;;;4990172;28;20431;-68
2022/10/22 11:58:29;;;;;;;41.63;5.50;;;20.10;1.00;;;;;;4990412;28;20413;-68
2022/10/22 12:00:56;;;;;;;65.13;9.47;;;19.90;1.00;;;;;;4989281;28;20474;-67
2022/10/22 12:03:31;;;;;;;54.07;8.87;;;19.90;1.00;;;;;;4989837;28;20503;-68
2022/10/22 12:06:13;;;;;;;116.80;12.53;;;19.90;1.00;;;;;;4990150;28;20414;-68
2022/10/22 12:08:48;;;;;;;171.13;18.13;;;20.10;1.00;;;;;;4990329;28;20412;-68
2022/10/22 12:11:48;;;;;;;32.60;5.13;;;20.20;1.00;;;;;;4989392;28;20447;-67
2022/10/22 12:14:31;;;;;;;20.30;4.60;;;20.30;1.00;;;;;;4990313;28;21197;-68
2022/10/22 12:17:14;;;;;;;47.23;8.17;;;20.30;1.00;;;;;;4990077;28;20404;-67
2022/10/22 12:19:43;;;;;;;24.40;4.97;;;20.30;1.00;;;;;;4991112;28;20404;-68
2022/10/22 12:22:09;;;;;;;8.73;4.13;;;20.40;1.00;;;;;;4989597;28;20473;-67
2022/10/22 12:24:41;;;;;;;13.93;5.00;;;20.50;1.00;;;;;;4989785;28;20909;-68
2022/10/22 12:27:32;;;;;;;22.03;3.57;;;20.40;1.00;;;;;;4989988;28;20180;-69
2022/10/22 12:29:59;;;;;;;23.40;5.03;;;20.20;1.00;;;;;;4990077;28;20408;-67
2022/10/22 12:32:41;;;;;;;17.00;3.70;;;20.00;1.00;;;;;;4988692;28;20469;-68
2022/10/22 12:35:19;;;;;;;50.17;7.20;;;19.90;1.00;;;;;;4989888;28;20964;-69
2022/10/22 12:37:53;;;;;;;21.40;4.90;;;19.80;1.00;;;;;;4990469;28;20468;-69
2022/10/22 12:40:28;;;;;;;42.20;5.83;;;19.60;1.00;;;;;;4989662;28;20885;-68
2022/10/22 12:42:56;;;;;;;30.87;5.13;;;19.30;1.00;;;;;;4990323;28;20556;-67
2022/10/22 12:45:25;;;;;;;24.33;6.13;;;19.30;1.00;;;;;;4989608;28;20465;-69
2022/10/22 12:47:56;;;;;;;11.07;3.30;;;19.30;1.00;;;;;;4990147;28;20420;-68
2022/10/22 12:50:39;;;;;;;11.80;3.83;;;19.40;1.00;;;;;;4987744;28;20447;-67
2022/10/22 12:53:12;;;;;;;28.23;4.70;;;19.40;1.00;;;;;;4989706;28;20482;-68
2022/10/22 12:55:38;;;;;;;14.90;2.90;;;19.40;1.00;;;;;;4989517;28;20490;-68
2022/10/22 12:58:05;;;;;;;13.63;3.83;;;19.40;1.00;;;;;;4990080;28;20416;-67
2022/10/22 13:00:33;;;;;;;13.93;3.03;;;19.30;1.00;;;;;;4988653;28;20289;-68
2022/10/22 13:03:04;;;;;;;9.03;3.37;;;19.10;1.00;;;;;;4989795;28;20482;-68
2022/10/22 13:05:37;;;;;;;9.17;3.30;;;19.10;1.00;;;;;;4989423;28;20428;-69
2022/10/22 13:08:07;;;;;;;9.13;3.37;;;19.00;1.00;;;;;;4989666;28;20734;-69
2022/10/22 13:10:36;;;;;;;5.93;2.87;;;19.10;1.00;;;;;;4988828;28;20837;-68
2022/10/22 13:13:05;;;;;;;16.00;3.87;;;19.20;1.00;;;;;;4989680;28;20429;-67